sensor_id;sensor_type;location;lat;lon;timestamp;temperature;humidity
7206;DHT22;3644;53.480;10.004;2023-09-30T00:00:43;16.40;99.90
7206;DHT22;3644;53.480;10.004;2023-09-30T00:03:09;16.40;99.90
7206;DHT22;3644;53.480;10.004;2023-09-30T00:05:36;16.40;99.90
7206;DHT22;3644;53.480;10.004;2023-09-30T00:08:02;16.30;99.90
7206;DHT22;3644;53.480;10.004;2023-09-30T00:10:28;16.20;99.90
7206;DHT22;3644;53.480;10.004;2023-09-30T00:12:56;16.30;99.90
7206;DHT22;3644;53.480;10.004;2023-09-30T00:15:21;16.30;99.90
7206;DHT22;3644;53.480;10.004;2023-09-30T00:17:47;16.20;99.90
7206;DHT22;3644;53.480;10.004;2023-09-30T00:20:12;16.10;99.90
7206;DHT22;3644;53.480;10.004;2023-09-30T00:22:40;16.00;99.90
7206;DHT22;3644;53.480;10.004;2023-09-30T00:25:06;16.10;99.90
7206;DHT22;3644;53.480;10.004;2023-09-30T00:27:32;16.10;99.90
7206;DHT22;3644;53.480;10.004;2023-09-30T00:29:58;16.00;99.90
7206;DHT22;3644;53.480;10.004;2023-09-30T00:32:23;16.00;99.90
7206;DHT22;3644;53.480;10.004;2023-09-30T00:34:49;16.10;99.90
7206;DHT22;3644;53.480;10.004;2023-09-30T00:37:14;16.10;99.90
7206;DHT22;3644;53.480;10.004;2023-09-30T00:39:40;16.20;99.90
7206;DHT22;3644;53.480;10.004;2023-09-30T00:42:05;16.20;99.90
7206;DHT22;3644;53.480;10.004;2023-09-30T00:44:31;16.10;99.90
7206;DHT22;3644;53.480;10.004;2023-09-30T00:46:59;15.80;99.90
7206;DHT22;3644;53.480;10.004;2023-09-30T00:49:25;15.70;99.90
7206;DHT22;3644;53.480;10.004;2023-09-30T00:51:51;15.70;99.90
7206;DHT22;3644;53.480;10.004;2023-09-30T00:54:17;15.80;99.90
7206;DHT22;3644;53.480;10.004;2023-09-30T00:56:45;15.80;99.90
7206;DHT22;3644;53.480;10.004;2023-09-30T00:59:15;15.70;99.90
7206;DHT22;3644;53.480;10.004;2023-09-30T01:01:45;15.80;99.90
7206;DHT22;3644;53.480;10.004;2023-09-30T01:04:11;15.90;99.90
7206;DHT22;3644;53.480;10.004;2023-09-30T01:06:37;16.00;99.90
7206;DHT22;3644;53.480;10.004;2023-09-30T01:09:02;15.90;99.90
7206;DHT22;3644;53.480;10.004;2023-09-30T01:11:28;16.00;99.90
7206;DHT22;3644;53.480;10.004;2023-09-30T01:13:54;15.80;99.90
7206;DHT22;3644;53.480;10.004;2023-09-30T01:16:20;15.80;99.90
7206;DHT22;3644;53.480;10.004;2023-09-30T01:18:46;15.80;99.90
7206;DHT22;3644;53.480;10.004;2023-09-30T01:21:12;15.80;99.90
7206;DHT22;3644;53.480;10.004;2023-09-30T01:23:38;15.90;99.90
7206;DHT22;3644;53.480;10.004;2023-09-30T01:26:09;15.90;99.90
7206;DHT22;3644;53.480;10.004;2023-09-30T01:28:36;15.90;99.90
7206;DHT22;3644;53.480;10.004;2023-09-30T01:31:01;16.00;99.90
7206;DHT22;3644;53.480;10.004;2023-09-30T01:33:27;16.10;99.90
7206;DHT22;3644;53.480;10.004;2023-09-30T01:35:53;15.90;99.90
7206;DHT22;3644;53.480;10.004;2023-09-30T01:38:19;16.00;99.90
7206;DHT22;3644;53.480;10.004;2023-09-30T01:40:45;16.10;99.90
7206;DHT22;3644;53.480;10.004;2023-09-30T01:43:12;16.00;99.90
7206;DHT22;3644;53.480;10.004;2023-09-30T01:45:39;16.10;99.90
7206;DHT22;3644;53.480;10.004;2023-09-30T01:48:05;16.10;99.90
7206;DHT22;3644;53.480;10.004;2023-09-30T01:50:30;16.00;99.90
7206;DHT22;3644;53.480;10.004;2023-09-30T01:52:56;15.90;99.90
7206;DHT22;3644;53.480;10.004;2023-09-30T01:55:22;15.80;99.90
7206;DHT22;3644;53.480;10.004;2023-09-30T01:57:48;15.80;99.90
7206;DHT22;3644;53.480;10.004;2023-09-30T02:00:13;15.60;99.90
7206;DHT22;3644;53.480;10.004;2023-09-30T02:02:39;15.60;99.90
7206;DHT22;3644;53.480;10.004;2023-09-30T02:05:05;15.70;99.90
7206;DHT22;3644;53.480;10.004;2023-09-30T02:07:33;15.70;99.90
7206;DHT22;3644;53.480;10.004;2023-09-30T02:09:59;15.70;99.90
7206;DHT22;3644;53.480;10.004;2023-09-30T02:12:26;15.70;99.90
7206;DHT22;3644;53.480;10.004;2023-09-30T02:14:53;15.60;99.90
7206;DHT22;3644;53.480;10.004;2023-09-30T02:17:19;15.70;99.90
7206;DHT22;3644;53.480;10.004;2023-09-30T02:19:44;15.70;99.90
7206;DHT22;3644;53.480;10.004;2023-09-30T02:22:10;15.70;99.90
7206;DHT22;3644;53.480;10.004;2023-09-30T02:24:36;15.70;99.90
7206;DHT22;3644;53.480;10.004;2023-09-30T02:27:02;15.70;99.90
7206;DHT22;3644;53.480;10.004;2023-09-30T02:29:28;15.70;99.90
7206;DHT22;3644;53.480;10.004;2023-09-30T02:31:54;15.70;99.90
7206;DHT22;3644;53.480;10.004;2023-09-30T02:34:20;15.50;99.90
7206;DHT22;3644;53.480;10.004;2023-09-30T02:36:45;15.40;99.90
7206;DHT22;3644;53.480;10.004;2023-09-30T02:39:11;15.50;99.90
7206;DHT22;3644;53.480;10.004;2023-09-30T02:41:36;15.70;99.90
7206;DHT22;3644;53.480;10.004;2023-09-30T02:44:03;15.50;99.90
7206;DHT22;3644;53.480;10.004;2023-09-30T02:46:29;15.60;99.90
7206;DHT22;3644;53.480;10.004;2023-09-30T02:48:54;15.60;99.90
7206;DHT22;3644;53.480;10.004;2023-09-30T02:51:20;15.30;99.90
7206;DHT22;3644;53.480;10.004;2023-09-30T02:53:45;15.20;99.90
7206;DHT22;3644;53.480;10.004;2023-09-30T02:56:13;15.30;99.90
7206;DHT22;3644;53.480;10.004;2023-09-30T02:58:39;15.40;99.90
7206;DHT22;3644;53.480;10.004;2023-09-30T03:01:05;15.40;99.90
7206;DHT22;3644;53.480;10.004;2023-09-30T03:03:32;15.40;99.90
7206;DHT22;3644;53.480;10.004;2023-09-30T03:05:59;15.40;99.90
7206;DHT22;3644;53.480;10.004;2023-09-30T03:08:26;15.20;99.90
7206;DHT22;3644;53.480;10.004;2023-09-30T03:10:51;15.30;99.90
7206;DHT22;3644;53.480;10.004;2023-09-30T03:13:18;15.30;99.90
7206;DHT22;3644;53.480;10.004;2023-09-30T03:15:44;15.50;99.90
7206;DHT22;3644;53.480;10.004;2023-09-30T03:18:09;15.40;99.90
7206;DHT22;3644;53.480;10.004;2023-09-30T03:20:36;15.50;99.90
7206;DHT22;3644;53.480;10.004;2023-09-30T03:23:06;15.60;99.90
7206;DHT22;3644;53.480;10.004;2023-09-30T03:25:31;15.60;99.90
7206;DHT22;3644;53.480;10.004;2023-09-30T03:27:57;15.50;99.90
7206;DHT22;3644;53.480;10.004;2023-09-30T03:30:23;15.50;99.90
7206;DHT22;3644;53.480;10.004;2023-09-30T03:32:49;15.40;99.90
7206;DHT22;3644;53.480;10.004;2023-09-30T03:35:15;15.50;99.90
7206;DHT22;3644;53.480;10.004;2023-09-30T03:37:47;15.20;99.90
7206;DHT22;3644;53.480;10.004;2023-09-30T03:40:13;15.10;99.90
7206;DHT22;3644;53.480;10.004;2023-09-30T03:42:40;15.10;99.90
7206;DHT22;3644;53.480;10.004;2023-09-30T03:45:08;15.10;99.90
7206;DHT22;3644;53.480;10.004;2023-09-30T03:47:37;15.20;99.90
7206;DHT22;3644;53.480;10.004;2023-09-30T03:50:04;15.20;99.90
7206;DHT22;3644;53.480;10.004;2023-09-30T03:52:32;15.30;99.90
7206;DHT22;3644;53.480;10.004;2023-09-30T03:54:59;15.30;99.90
7206;DHT22;3644;53.480;10.004;2023-09-30T03:57:25;15.50;99.90
7206;DHT22;3644;53.480;10.004;2023-09-30T03:59:50;15.40;99.90
7206;DHT22;3644;53.480;10.004;2023-09-30T04:02:16;15.40;99.90
7206;DHT22;3644;53.480;10.004;2023-09-30T04:04:41;15.40;99.90
7206;DHT22;3644;53.480;10.004;2023-09-30T04:07:07;15.30;99.90
7206;DHT22;3644;53.480;10.004;2023-09-30T04:09:35;15.40;99.90
7206;DHT22;3644;53.480;10.004;2023-09-30T04:12:01;15.40;99.90
7206;DHT22;3644;53.480;10.004;2023-09-30T04:14:26;15.30;99.90
7206;DHT22;3644;53.480;10.004;2023-09-30T04:16:52;15.10;99.90
7206;DHT22;3644;53.480;10.004;2023-09-30T04:19:19;15.10;99.90
7206;DHT22;3644;53.480;10.004;2023-09-30T04:21:45;14.90;99.90
7206;DHT22;3644;53.480;10.004;2023-09-30T04:24:11;14.90;99.90
7206;DHT22;3644;53.480;10.004;2023-09-30T04:26:36;15.10;99.90
7206;DHT22;3644;53.480;10.004;2023-09-30T04:29:02;15.10;99.90
7206;DHT22;3644;53.480;10.004;2023-09-30T04:31:37;15.20;99.90
7206;DHT22;3644;53.480;10.004;2023-09-30T04:34:04;15.10;99.90
7206;DHT22;3644;53.480;10.004;2023-09-30T04:36:30;15.20;99.90
7206;DHT22;3644;53.480;10.004;2023-09-30T04:38:56;15.10;99.90
7206;DHT22;3644;53.480;10.004;2023-09-30T04:41:21;15.20;99.90
7206;DHT22;3644;53.480;10.004;2023-09-30T04:43:47;15.20;99.90
7206;DHT22;3644;53.480;10.004;2023-09-30T04:46:13;15.30;99.90
7206;DHT22;3644;53.480;10.004;2023-09-30T04:48:39;15.30;99.90
7206;DHT22;3644;53.480;10.004;2023-09-30T04:51:08;15.30;99.90
7206;DHT22;3644;53.480;10.004;2023-09-30T04:53:34;15.30;99.90
7206;DHT22;3644;53.480;10.004;2023-09-30T04:55:59;15.20;99.90
7206;DHT22;3644;53.480;10.004;2023-09-30T04:58:26;15.20;99.90
7206;DHT22;3644;53.480;10.004;2023-09-30T05:00:52;15.10;99.90
7206;DHT22;3644;53.480;10.004;2023-09-30T05:03:17;15.40;99.90
7206;DHT22;3644;53.480;10.004;2023-09-30T05:05:44;15.30;99.90
7206;DHT22;3644;53.480;10.004;2023-09-30T05:08:10;15.30;99.90
7206;DHT22;3644;53.480;10.004;2023-09-30T05:10:36;15.20;99.90
7206;DHT22;3644;53.480;10.004;2023-09-30T05:13:03;15.20;99.90
7206;DHT22;3644;53.480;10.004;2023-09-30T05:15:29;15.30;99.90
7206;DHT22;3644;53.480;10.004;2023-09-30T05:17:57;15.40;99.90
7206;DHT22;3644;53.480;10.004;2023-09-30T05:20:23;15.40;99.90
7206;DHT22;3644;53.480;10.004;2023-09-30T05:22:49;15.50;99.90
7206;DHT22;3644;53.480;10.004;2023-09-30T05:25:16;15.40;99.90
7206;DHT22;3644;53.480;10.004;2023-09-30T05:27:43;15.40;99.90
7206;DHT22;3644;53.480;10.004;2023-09-30T05:30:09;15.30;99.90
7206;DHT22;3644;53.480;10.004;2023-09-30T05:32:36;15.40;99.90
7206;DHT22;3644;53.480;10.004;2023-09-30T05:35:04;15.50;99.90
7206;DHT22;3644;53.480;10.004;2023-09-30T05:37:30;15.60;99.90
7206;DHT22;3644;53.480;10.004;2023-09-30T05:39:56;15.60;99.90
7206;DHT22;3644;53.480;10.004;2023-09-30T05:42:21;15.80;99.90
7206;DHT22;3644;53.480;10.004;2023-09-30T05:44:47;15.80;99.90
7206;DHT22;3644;53.480;10.004;2023-09-30T05:47:14;15.70;99.90
7206;DHT22;3644;53.480;10.004;2023-09-30T05:49:40;15.80;99.90
7206;DHT22;3644;53.480;10.004;2023-09-30T05:52:07;15.70;99.90
7206;DHT22;3644;53.480;10.004;2023-09-30T05:54:32;15.50;99.90
7206;DHT22;3644;53.480;10.004;2023-09-30T05:56:58;15.60;99.90
7206;DHT22;3644;53.480;10.004;2023-09-30T05:59:23;15.60;99.90
7206;DHT22;3644;53.480;10.004;2023-09-30T06:01:51;15.60;99.90
7206;DHT22;3644;53.480;10.004;2023-09-30T06:04:16;15.60;99.90
7206;DHT22;3644;53.480;10.004;2023-09-30T06:06:42;15.60;99.90
7206;DHT22;3644;53.480;10.004;2023-09-30T06:09:08;15.50;99.90
7206;DHT22;3644;53.480;10.004;2023-09-30T06:11:34;15.60;99.90
7206;DHT22;3644;53.480;10.004;2023-09-30T06:14:01;15.60;99.90
7206;DHT22;3644;53.480;10.004;2023-09-30T06:16:28;15.60;99.90
7206;DHT22;3644;53.480;10.004;2023-09-30T06:18:53;15.30;99.90
7206;DHT22;3644;53.480;10.004;2023-09-30T06:21:24;15.30;99.90
7206;DHT22;3644;53.480;10.004;2023-09-30T06:23:50;15.50;99.90
7206;DHT22;3644;53.480;10.004;2023-09-30T06:26:18;15.60;99.90
7206;DHT22;3644;53.480;10.004;2023-09-30T06:28:46;15.80;99.90
7206;DHT22;3644;53.480;10.004;2023-09-30T06:31:13;15.90;99.90
7206;DHT22;3644;53.480;10.004;2023-09-30T06:33:39;15.90;99.90
7206;DHT22;3644;53.480;10.004;2023-09-30T06:36:14;15.70;99.90
7206;DHT22;3644;53.480;10.004;2023-09-30T06:38:41;15.80;99.90
7206;DHT22;3644;53.480;10.004;2023-09-30T06:41:15;15.90;99.90
7206;DHT22;3644;53.480;10.004;2023-09-30T06:43:41;15.80;99.90
7206;DHT22;3644;53.480;10.004;2023-09-30T06:46:07;15.80;99.90
7206;DHT22;3644;53.480;10.004;2023-09-30T06:48:36;15.80;99.90
7206;DHT22;3644;53.480;10.004;2023-09-30T06:51:02;16.00;99.90
7206;DHT22;3644;53.480;10.004;2023-09-30T06:53:28;15.90;99.90
7206;DHT22;3644;53.480;10.004;2023-09-30T06:55:54;15.70;99.90
7206;DHT22;3644;53.480;10.004;2023-09-30T06:58:19;15.70;99.90
7206;DHT22;3644;53.480;10.004;2023-09-30T07:00:51;15.90;99.90
7206;DHT22;3644;53.480;10.004;2023-09-30T07:03:18;15.80;99.90
7206;DHT22;3644;53.480;10.004;2023-09-30T07:05:47;15.80;99.90
7206;DHT22;3644;53.480;10.004;2023-09-30T07:08:18;15.80;99.90
7206;DHT22;3644;53.480;10.004;2023-09-30T07:10:44;16.00;99.90
7206;DHT22;3644;53.480;10.004;2023-09-30T07:13:11;16.00;99.90
7206;DHT22;3644;53.480;10.004;2023-09-30T07:15:37;15.90;99.90
7206;DHT22;3644;53.480;10.004;2023-09-30T07:18:02;16.00;99.90
7206;DHT22;3644;53.480;10.004;2023-09-30T07:20:28;16.10;99.90
7206;DHT22;3644;53.480;10.004;2023-09-30T07:23:00;16.30;99.90
7206;DHT22;3644;53.480;10.004;2023-09-30T07:25:27;16.40;99.90
7206;DHT22;3644;53.480;10.004;2023-09-30T07:27:52;16.40;99.90
7206;DHT22;3644;53.480;10.004;2023-09-30T07:30:18;16.40;99.90
7206;DHT22;3644;53.480;10.004;2023-09-30T07:32:44;16.40;99.90
7206;DHT22;3644;53.480;10.004;2023-09-30T07:35:11;16.30;99.90
7206;DHT22;3644;53.480;10.004;2023-09-30T07:37:37;16.40;99.90
7206;DHT22;3644;53.480;10.004;2023-09-30T07:40:03;16.40;99.90
7206;DHT22;3644;53.480;10.004;2023-09-30T07:42:30;16.50;99.90
7206;DHT22;3644;53.480;10.004;2023-09-30T07:44:55;16.70;99.90
7206;DHT22;3644;53.480;10.004;2023-09-30T07:47:21;16.70;99.90
7206;DHT22;3644;53.480;10.004;2023-09-30T07:49:46;16.60;99.90
7206;DHT22;3644;53.480;10.004;2023-09-30T07:52:12;16.50;99.90
7206;DHT22;3644;53.480;10.004;2023-09-30T07:54:37;16.60;99.90
7206;DHT22;3644;53.480;10.004;2023-09-30T07:57:03;16.70;99.90
7206;DHT22;3644;53.480;10.004;2023-09-30T07:59:28;16.60;99.90
7206;DHT22;3644;53.480;10.004;2023-09-30T08:01:54;16.50;99.90
7206;DHT22;3644;53.480;10.004;2023-09-30T08:04:20;16.80;99.90
7206;DHT22;3644;53.480;10.004;2023-09-30T08:06:45;16.60;99.90
7206;DHT22;3644;53.480;10.004;2023-09-30T08:09:14;16.80;99.90
7206;DHT22;3644;53.480;10.004;2023-09-30T08:11:40;16.80;99.90
7206;DHT22;3644;53.480;10.004;2023-09-30T08:14:06;17.00;99.90
7206;DHT22;3644;53.480;10.004;2023-09-30T08:16:35;17.10;99.90
7206;DHT22;3644;53.480;10.004;2023-09-30T08:19:00;17.10;99.90
7206;DHT22;3644;53.480;10.004;2023-09-30T08:21:26;17.10;99.90
7206;DHT22;3644;53.480;10.004;2023-09-30T08:23:51;17.10;99.90
7206;DHT22;3644;53.480;10.004;2023-09-30T08:26:17;17.40;99.90
7206;DHT22;3644;53.480;10.004;2023-09-30T08:28:42;17.40;99.90
7206;DHT22;3644;53.480;10.004;2023-09-30T08:31:08;17.50;99.90
7206;DHT22;3644;53.480;10.004;2023-09-30T08:33:34;17.50;99.90
7206;DHT22;3644;53.480;10.004;2023-09-30T08:36:05;17.60;99.90
7206;DHT22;3644;53.480;10.004;2023-09-30T08:38:36;17.70;99.90
7206;DHT22;3644;53.480;10.004;2023-09-30T08:41:01;17.70;99.90
7206;DHT22;3644;53.480;10.004;2023-09-30T08:43:30;17.90;99.90
7206;DHT22;3644;53.480;10.004;2023-09-30T08:45:58;17.90;99.90
7206;DHT22;3644;53.480;10.004;2023-09-30T08:48:26;17.90;99.90
7206;DHT22;3644;53.480;10.004;2023-09-30T08:50:53;18.10;99.90
7206;DHT22;3644;53.480;10.004;2023-09-30T08:53:20;18.30;99.90
7206;DHT22;3644;53.480;10.004;2023-09-30T08:55:46;18.20;99.90
7206;DHT22;3644;53.480;10.004;2023-09-30T08:58:12;18.30;99.90
7206;DHT22;3644;53.480;10.004;2023-09-30T09:00:39;17.90;99.90
7206;DHT22;3644;53.480;10.004;2023-09-30T09:03:07;18.00;99.90
7206;DHT22;3644;53.480;10.004;2023-09-30T09:05:32;18.20;99.90
7206;DHT22;3644;53.480;10.004;2023-09-30T09:07:58;18.30;99.90
7206;DHT22;3644;53.480;10.004;2023-09-30T09:10:24;18.30;99.90
7206;DHT22;3644;53.480;10.004;2023-09-30T09:12:55;18.20;99.90
7206;DHT22;3644;53.480;10.004;2023-09-30T09:15:26;18.20;99.90
7206;DHT22;3644;53.480;10.004;2023-09-30T09:17:52;18.30;99.90
7206;DHT22;3644;53.480;10.004;2023-09-30T09:20:22;18.20;99.90
7206;DHT22;3644;53.480;10.004;2023-09-30T09:22:51;18.40;99.90
7206;DHT22;3644;53.480;10.004;2023-09-30T09:25:19;18.40;99.90
7206;DHT22;3644;53.480;10.004;2023-09-30T09:27:44;18.50;99.90
7206;DHT22;3644;53.480;10.004;2023-09-30T09:30:17;18.20;99.90
7206;DHT22;3644;53.480;10.004;2023-09-30T09:33:03;18.30;99.90
7206;DHT22;3644;53.480;10.004;2023-09-30T09:35:33;18.50;99.90
7206;DHT22;3644;53.480;10.004;2023-09-30T09:38:06;18.50;99.90
7206;DHT22;3644;53.480;10.004;2023-09-30T09:40:34;18.50;99.90
7206;DHT22;3644;53.480;10.004;2023-09-30T09:43:01;18.60;99.90
7206;DHT22;3644;53.480;10.004;2023-09-30T09:45:30;18.60;99.90
7206;DHT22;3644;53.480;10.004;2023-09-30T09:47:59;18.70;99.90
7206;DHT22;3644;53.480;10.004;2023-09-30T09:50:25;18.70;99.90
7206;DHT22;3644;53.480;10.004;2023-09-30T09:52:52;18.60;99.90
7206;DHT22;3644;53.480;10.004;2023-09-30T09:55:19;18.60;99.90
7206;DHT22;3644;53.480;10.004;2023-09-30T09:57:46;18.70;99.90
7206;DHT22;3644;53.480;10.004;2023-09-30T10:00:15;18.80;99.90
7206;DHT22;3644;53.480;10.004;2023-09-30T10:02:41;19.10;99.90
7206;DHT22;3644;53.480;10.004;2023-09-30T10:05:08;19.40;99.90
7206;DHT22;3644;53.480;10.004;2023-09-30T10:07:37;19.20;99.90
7206;DHT22;3644;53.480;10.004;2023-09-30T10:10:11;19.20;99.90
7206;DHT22;3644;53.480;10.004;2023-09-30T10:12:39;19.10;99.90
7206;DHT22;3644;53.480;10.004;2023-09-30T10:17:58;19.30;99.90
7206;DHT22;3644;53.480;10.004;2023-09-30T10:20:28;19.20;99.90
7206;DHT22;3644;53.480;10.004;2023-09-30T10:25:45;19.20;99.90
7206;DHT22;3644;53.480;10.004;2023-09-30T10:28:35;19.20;99.90
7206;DHT22;3644;53.480;10.004;2023-09-30T10:39:00;19.60;99.90
7206;DHT22;3644;53.480;10.004;2023-09-30T10:46:51;19.70;99.90
7206;DHT22;3644;53.480;10.004;2023-09-30T10:51:58;19.70;99.90
7206;DHT22;3644;53.480;10.004;2023-09-30T10:54:32;20.00;99.90
7206;DHT22;3644;53.480;10.004;2023-09-30T10:56:59;20.00;99.90
7206;DHT22;3644;53.480;10.004;2023-09-30T10:59:26;20.00;99.90
7206;DHT22;3644;53.480;10.004;2023-09-30T11:01:53;19.80;99.90
7206;DHT22;3644;53.480;10.004;2023-09-30T11:04:19;19.70;99.90
7206;DHT22;3644;53.480;10.004;2023-09-30T11:06:45;19.90;99.90
7206;DHT22;3644;53.480;10.004;2023-09-30T11:09:20;20.00;99.90
7206;DHT22;3644;53.480;10.004;2023-09-30T11:11:51;19.80;99.90
7206;DHT22;3644;53.480;10.004;2023-09-30T11:16:46;19.90;99.90
7206;DHT22;3644;53.480;10.004;2023-09-30T11:19:12;19.90;99.90
7206;DHT22;3644;53.480;10.004;2023-09-30T11:21:41;20.00;99.90
7206;DHT22;3644;53.480;10.004;2023-09-30T11:24:09;20.10;99.90
7206;DHT22;3644;53.480;10.004;2023-09-30T11:26:35;20.10;99.90
7206;DHT22;3644;53.480;10.004;2023-09-30T11:29:09;20.20;99.90
7206;DHT22;3644;53.480;10.004;2023-09-30T11:31:44;20.20;99.90
7206;DHT22;3644;53.480;10.004;2023-09-30T11:34:10;20.10;99.90
7206;DHT22;3644;53.480;10.004;2023-09-30T11:36:41;20.20;99.90
7206;DHT22;3644;53.480;10.004;2023-09-30T11:39:09;20.10;99.90
7206;DHT22;3644;53.480;10.004;2023-09-30T11:41:39;20.20;99.90
7206;DHT22;3644;53.480;10.004;2023-09-30T11:44:10;20.40;99.90
7206;DHT22;3644;53.480;10.004;2023-09-30T11:46:57;20.20;99.90
7206;DHT22;3644;53.480;10.004;2023-09-30T11:49:34;20.40;99.90
7206;DHT22;3644;53.480;10.004;2023-09-30T11:52:02;20.40;99.90
7206;DHT22;3644;53.480;10.004;2023-09-30T11:54:32;20.50;99.90
7206;DHT22;3644;53.480;10.004;2023-09-30T11:56:59;20.30;99.90
7206;DHT22;3644;53.480;10.004;2023-09-30T11:59:25;20.40;99.90
7206;DHT22;3644;53.480;10.004;2023-09-30T12:01:51;20.30;99.90
7206;DHT22;3644;53.480;10.004;2023-09-30T12:04:20;20.30;99.90
7206;DHT22;3644;53.480;10.004;2023-09-30T12:06:46;20.20;99.90
7206;DHT22;3644;53.480;10.004;2023-09-30T12:09:15;20.40;99.90
7206;DHT22;3644;53.480;10.004;2023-09-30T12:11:42;20.40;99.90
7206;DHT22;3644;53.480;10.004;2023-09-30T12:14:12;20.50;99.90
7206;DHT22;3644;53.480;10.004;2023-09-30T12:16:38;20.40;99.90
7206;DHT22;3644;53.480;10.004;2023-09-30T12:19:04;20.50;99.90
7206;DHT22;3644;53.480;10.004;2023-09-30T12:21:31;20.50;99.90
7206;DHT22;3644;53.480;10.004;2023-09-30T12:23:57;20.50;99.90
7206;DHT22;3644;53.480;10.004;2023-09-30T12:26:23;20.40;99.90
7206;DHT22;3644;53.480;10.004;2023-09-30T12:28:49;20.30;99.90
7206;DHT22;3644;53.480;10.004;2023-09-30T12:31:15;20.30;99.90
7206;DHT22;3644;53.480;10.004;2023-09-30T12:33:41;20.60;99.90
7206;DHT22;3644;53.480;10.004;2023-09-30T12:36:06;20.70;99.90
7206;DHT22;3644;53.480;10.004;2023-09-30T12:38:33;20.50;99.90
7206;DHT22;3644;53.480;10.004;2023-09-30T12:40:58;20.50;99.90
7206;DHT22;3644;53.480;10.004;2023-09-30T12:43:24;20.70;99.90
7206;DHT22;3644;53.480;10.004;2023-09-30T12:45:50;20.80;99.90
7206;DHT22;3644;53.480;10.004;2023-09-30T12:48:15;20.70;99.90
7206;DHT22;3644;53.480;10.004;2023-09-30T12:50:42;20.50;99.90
7206;DHT22;3644;53.480;10.004;2023-09-30T12:53:08;20.60;99.90
7206;DHT22;3644;53.480;10.004;2023-09-30T12:55:33;20.90;99.90
7206;DHT22;3644;53.480;10.004;2023-09-30T12:57:59;21.00;99.90
7206;DHT22;3644;53.480;10.004;2023-09-30T13:00:26;21.00;99.90
7206;DHT22;3644;53.480;10.004;2023-09-30T13:02:52;20.70;99.90
7206;DHT22;3644;53.480;10.004;2023-09-30T13:05:17;20.90;99.90
7206;DHT22;3644;53.480;10.004;2023-09-30T13:07:43;21.20;99.90
7206;DHT22;3644;53.480;10.004;2023-09-30T13:10:09;21.10;99.90
7206;DHT22;3644;53.480;10.004;2023-09-30T13:12:35;21.30;99.90
7206;DHT22;3644;53.480;10.004;2023-09-30T13:15:01;21.20;99.90
7206;DHT22;3644;53.480;10.004;2023-09-30T13:17:27;21.30;99.90
7206;DHT22;3644;53.480;10.004;2023-09-30T13:19:53;21.40;99.90
7206;DHT22;3644;53.480;10.004;2023-09-30T13:22:19;21.30;99.90
7206;DHT22;3644;53.480;10.004;2023-09-30T13:24:45;21.30;99.90
7206;DHT22;3644;53.480;10.004;2023-09-30T13:27:11;21.10;99.90
7206;DHT22;3644;53.480;10.004;2023-09-30T13:29:36;21.10;99.90
7206;DHT22;3644;53.480;10.004;2023-09-30T13:32:03;20.90;99.90
7206;DHT22;3644;53.480;10.004;2023-09-30T13:34:29;20.70;99.90
7206;DHT22;3644;53.480;10.004;2023-09-30T13:36:55;20.80;99.90
7206;DHT22;3644;53.480;10.004;2023-09-30T13:39:21;20.80;99.90
7206;DHT22;3644;53.480;10.004;2023-09-30T13:41:46;21.00;99.90
7206;DHT22;3644;53.480;10.004;2023-09-30T13:44:15;21.10;99.90
7206;DHT22;3644;53.480;10.004;2023-09-30T13:46:41;21.10;99.90
7206;DHT22;3644;53.480;10.004;2023-09-30T13:49:07;21.00;99.90
7206;DHT22;3644;53.480;10.004;2023-09-30T13:51:33;20.80;99.90
7206;DHT22;3644;53.480;10.004;2023-09-30T13:53:58;20.90;99.90
7206;DHT22;3644;53.480;10.004;2023-09-30T13:56:24;20.80;99.90
7206;DHT22;3644;53.480;10.004;2023-09-30T13:58:50;21.00;99.90
7206;DHT22;3644;53.480;10.004;2023-09-30T14:01:15;20.90;99.90
7206;DHT22;3644;53.480;10.004;2023-09-30T14:03:41;21.10;99.90
7206;DHT22;3644;53.480;10.004;2023-09-30T14:06:13;21.20;99.90
7206;DHT22;3644;53.480;10.004;2023-09-30T14:08:40;21.20;99.90
7206;DHT22;3644;53.480;10.004;2023-09-30T14:11:08;21.10;99.90
7206;DHT22;3644;53.480;10.004;2023-09-30T14:13:33;21.20;99.90
7206;DHT22;3644;53.480;10.004;2023-09-30T14:15:59;21.10;99.90
7206;DHT22;3644;53.480;10.004;2023-09-30T14:18:24;20.80;99.90
7206;DHT22;3644;53.480;10.004;2023-09-30T14:20:50;20.90;99.90
7206;DHT22;3644;53.480;10.004;2023-09-30T14:23:16;21.00;99.90
7206;DHT22;3644;53.480;10.004;2023-09-30T14:25:41;21.10;99.90
7206;DHT22;3644;53.480;10.004;2023-09-30T14:28:07;20.90;99.90
7206;DHT22;3644;53.480;10.004;2023-09-30T14:30:32;20.70;99.90
7206;DHT22;3644;53.480;10.004;2023-09-30T14:32:58;21.00;99.90
7206;DHT22;3644;53.480;10.004;2023-09-30T14:35:24;21.10;99.90
7206;DHT22;3644;53.480;10.004;2023-09-30T14:37:49;21.10;99.90
7206;DHT22;3644;53.480;10.004;2023-09-30T14:40:15;21.00;99.90
7206;DHT22;3644;53.480;10.004;2023-09-30T14:42:41;21.00;99.90
7206;DHT22;3644;53.480;10.004;2023-09-30T14:45:08;21.00;99.90
7206;DHT22;3644;53.480;10.004;2023-09-30T14:47:33;21.10;99.90
7206;DHT22;3644;53.480;10.004;2023-09-30T14:49:59;20.90;99.90
7206;DHT22;3644;53.480;10.004;2023-09-30T14:52:27;21.10;99.90
7206;DHT22;3644;53.480;10.004;2023-09-30T14:54:52;21.20;99.90
7206;DHT22;3644;53.480;10.004;2023-09-30T14:57:18;21.10;99.90
7206;DHT22;3644;53.480;10.004;2023-09-30T14:59:46;20.90;99.90
7206;DHT22;3644;53.480;10.004;2023-09-30T15:02:11;21.00;99.90
7206;DHT22;3644;53.480;10.004;2023-09-30T15:04:37;21.10;99.90
7206;DHT22;3644;53.480;10.004;2023-09-30T15:07:03;21.20;99.90
7206;DHT22;3644;53.480;10.004;2023-09-30T15:09:28;21.40;99.90
7206;DHT22;3644;53.480;10.004;2023-09-30T15:11:54;21.50;99.90
7206;DHT22;3644;53.480;10.004;2023-09-30T15:14:20;21.30;99.90
7206;DHT22;3644;53.480;10.004;2023-09-30T15:16:45;21.30;99.90
7206;DHT22;3644;53.480;10.004;2023-09-30T15:19:11;21.20;99.90
7206;DHT22;3644;53.480;10.004;2023-09-30T15:21:36;21.20;99.90
7206;DHT22;3644;53.480;10.004;2023-09-30T15:24:03;21.10;99.90
7206;DHT22;3644;53.480;10.004;2023-09-30T15:26:29;21.30;99.90
7206;DHT22;3644;53.480;10.004;2023-09-30T15:28:56;21.20;99.90
7206;DHT22;3644;53.480;10.004;2023-09-30T15:31:27;21.10;99.90
7206;DHT22;3644;53.480;10.004;2023-09-30T15:33:53;20.90;99.90
7206;DHT22;3644;53.480;10.004;2023-09-30T15:36:19;20.90;99.90
7206;DHT22;3644;53.480;10.004;2023-09-30T15:38:45;20.80;99.90
7206;DHT22;3644;53.480;10.004;2023-09-30T15:41:12;20.50;99.90
7206;DHT22;3644;53.480;10.004;2023-09-30T15:43:38;20.50;99.90
7206;DHT22;3644;53.480;10.004;2023-09-30T15:46:04;20.60;99.90
7206;DHT22;3644;53.480;10.004;2023-09-30T15:48:29;20.70;99.90
7206;DHT22;3644;53.480;10.004;2023-09-30T15:50:55;20.80;99.90
7206;DHT22;3644;53.480;10.004;2023-09-30T15:53:21;20.80;99.90
7206;DHT22;3644;53.480;10.004;2023-09-30T15:55:46;20.80;99.90
7206;DHT22;3644;53.480;10.004;2023-09-30T15:58:12;20.80;99.90
7206;DHT22;3644;53.480;10.004;2023-09-30T16:00:38;20.90;99.90
7206;DHT22;3644;53.480;10.004;2023-09-30T16:03:05;20.90;99.90
7206;DHT22;3644;53.480;10.004;2023-09-30T16:05:35;20.60;99.90